createdAt,value
2023-02-19T00:01:40.916Z,79.69
2023-02-19T00:04:44.720Z,79.80
2023-02-19T00:07:49.908Z,79.63
2023-02-19T00:10:54.734Z,80.03
2023-02-19T00:14:02.209Z,80.02
2023-02-19T00:17:06.985Z,79.85
2023-02-19T00:20:11.296Z,79.70
2023-02-19T00:23:15.927Z,79.62
2023-02-19T00:26:25.980Z,79.24
2023-02-19T00:29:33.181Z,79.31
2023-02-19T00:32:39.352Z,79.24
2023-02-19T00:35:43.497Z,79.05
2023-02-19T00:38:52.423Z,78.86
2023-02-19T00:41:58.347Z,78.83
2023-02-19T00:45:04.410Z,78.87
2023-02-19T00:48:08.490Z,79.00
2023-02-19T00:51:12.660Z,78.90
2023-02-19T00:54:18.251Z,78.97
2023-02-19T00:57:22.930Z,78.90
2023-02-19T01:00:28.742Z,78.99
2023-02-19T01:03:34.810Z,79.09
2023-02-19T01:06:40.770Z,79.53
2023-02-19T01:09:45.110Z,79.40
2023-02-19T01:12:49.820Z,79.02
2023-02-19T01:15:55.128Z,78.64
2023-02-19T01:19:00.508Z,78.47
2023-02-19T01:22:05.121Z,78.79
2023-02-19T01:25:09.265Z,78.33
2023-02-19T01:28:12.756Z,78.07
2023-02-19T01:31:18.749Z,78.06
2023-02-19T01:34:24.283Z,78.13
2023-02-19T01:37:28.468Z,78.15
2023-02-19T01:40:26.361Z,77.76
2023-02-19T01:43:30.585Z,77.96
2023-02-19T01:46:34.235Z,78.11
2023-02-19T01:49:47.214Z,77.96
2023-02-19T01:52:51.575Z,77.73
2023-02-19T01:55:56.729Z,77.42
2023-02-19T01:59:01.538Z,77.11
2023-02-19T02:02:07.872Z,77.51
2023-02-19T02:05:11.446Z,77.72
2023-02-19T02:08:34.421Z,77.72
2023-02-19T02:11:37.327Z,77.85
2023-02-19T02:14:42.433Z,77.84
2023-02-19T02:17:51.972Z,78.19
2023-02-19T02:21:03.192Z,78.52
2023-02-19T02:24:29.674Z,78.61
2023-02-19T02:27:59.014Z,79.05
2023-02-19T02:31:08.675Z,79.02
2023-02-19T02:34:25.442Z,78.82
2023-02-19T02:37:29.546Z,79.19
2023-02-19T02:40:35.021Z,79.53
2023-02-19T02:43:40.828Z,79.94
2023-02-19T02:46:48.794Z,80.29
2023-02-19T02:49:54.639Z,80.59
2023-02-19T02:53:20.492Z,80.56
2023-02-19T02:56:24.781Z,80.76
2023-02-19T02:59:30.773Z,81.00
2023-02-19T03:02:38.455Z,81.24
2023-02-19T03:06:00.897Z,81.33
2023-02-19T03:09:06.978Z,80.98
2023-02-19T03:12:31.890Z,80.87
2023-02-19T03:15:53.430Z,81.09
2023-02-19T03:19:18.783Z,81.14
2023-02-19T03:22:26.054Z,81.40
2023-02-19T03:25:53.197Z,81.48
2023-02-19T03:29:17.507Z,81.50
2023-02-19T03:32:28.671Z,81.47
2023-02-19T03:35:35.093Z,81.31
2023-02-19T03:38:47.769Z,81.50
2023-02-19T03:42:11.018Z,81.64
2023-02-19T03:45:31.039Z,81.43
2023-02-19T03:48:47.971Z,81.70
2023-02-19T03:51:55.692Z,81.79
2023-02-19T03:55:06.867Z,81.99
2023-02-19T03:58:29.796Z,82.05
2023-02-19T04:01:51.358Z,82.22
2023-02-19T04:05:01.880Z,82.58
2023-02-19T04:08:08.947Z,81.99
2023-02-19T04:11:17.613Z,81.62
2023-02-19T04:14:39.980Z,81.70
2023-02-19T04:17:50.108Z,81.81
2023-02-19T04:20:59.095Z,81.75
2023-02-19T04:24:03.173Z,81.97
2023-02-19T04:27:01.734Z,82.12
2023-02-19T04:29:54.389Z,82.31
2023-02-19T04:32:57.499Z,82.51
2023-02-19T04:36:00.802Z,82.50
2023-02-19T04:39:05.294Z,82.61
2023-02-19T04:42:09.175Z,82.33
2023-02-19T04:45:12.530Z,82.19
2023-02-19T04:48:18.557Z,82.21
2023-02-19T04:51:23.928Z,82.32
2023-02-19T04:54:27.959Z,82.38
2023-02-19T04:57:32.830Z,82.46
2023-02-19T05:00:37.864Z,82.58
2023-02-19T05:03:42.379Z,82.91
2023-02-19T05:06:46.614Z,83.15
2023-02-19T05:09:50.227Z,83.24
2023-02-19T05:12:57.857Z,83.19
2023-02-19T05:16:11.000Z,83.32
2023-02-19T05:19:14.671Z,83.56
2023-02-19T05:22:19.343Z,83.46
2023-02-19T05:25:24.956Z,83.09
2023-02-19T05:28:30.686Z,82.87
2023-02-19T05:31:36.070Z,82.79
2023-02-19T05:34:40.228Z,82.62
2023-02-19T05:37:45.548Z,82.28
2023-02-19T05:40:49.628Z,82.46
2023-02-19T05:43:55.114Z,82.22
2023-02-19T05:46:58.922Z,82.85
2023-02-19T05:50:03.290Z,82.86
2023-02-19T05:53:07.118Z,82.59
2023-02-19T05:56:11.881Z,82.52
2023-02-19T05:59:19.739Z,82.19
2023-02-19T06:02:24.356Z,82.26
2023-02-19T06:05:29.574Z,82.29
2023-02-19T06:08:33.929Z,82.30
2023-02-19T06:11:38.286Z,82.14
2023-02-19T06:14:42.372Z,82.21
2023-02-19T06:17:47.515Z,82.23
2023-02-19T06:20:51.335Z,81.66
2023-02-19T06:23:54.246Z,81.32
2023-02-19T06:26:59.757Z,80.72
2023-02-19T06:30:04.670Z,81.05
2023-02-19T06:33:08.534Z,81.29
2023-02-19T06:36:15.538Z,81.01
2023-02-19T06:39:19.257Z,81.33
2023-02-19T06:42:22.222Z,81.36
2023-02-19T06:45:26.447Z,81.25
2023-02-19T06:48:31.280Z,81.32
2023-02-19T06:51:36.695Z,81.58
2023-02-19T06:54:41.867Z,81.86
2023-02-19T06:57:46.214Z,81.89
2023-02-19T07:00:50.557Z,81.26
2023-02-19T07:03:54.874Z,80.74
2023-02-19T07:06:58.088Z,80.58
2023-02-19T07:10:03.418Z,80.14
2023-02-19T07:13:07.237Z,79.81
2023-02-19T07:16:19.497Z,79.59
2023-02-19T07:19:24.333Z,79.44
2023-02-19T07:22:28.856Z,79.19
2023-02-19T07:25:32.562Z,79.41
2023-02-19T07:28:37.002Z,79.39
2023-02-19T07:31:40.569Z,79.22
2023-02-19T07:34:44.806Z,79.03
2023-02-19T07:37:48.422Z,78.41
2023-02-19T07:40:52.102Z,77.36
2023-02-19T07:43:56.552Z,76.58
2023-02-19T07:47:02.561Z,76.76
2023-02-19T07:50:06.443Z,76.62
2023-02-19T07:53:11.224Z,76.44
2023-02-19T07:56:18.555Z,77.13
2023-02-19T07:59:25.465Z,75.88
2023-02-19T08:02:51.111Z,75.01
2023-02-19T08:05:58.161Z,74.83
2023-02-19T08:09:04.232Z,75.45
2023-02-19T08:12:26.374Z,75.30
2023-02-19T08:15:31.448Z,75.41
2023-02-19T08:18:38.151Z,74.09
2023-02-19T08:21:41.425Z,73.20
2023-02-19T08:24:48.505Z,73.30
2023-02-19T08:27:52.618Z,74.29
2023-02-19T08:30:58.868Z,73.70
2023-02-19T08:34:03.889Z,72.08
2023-02-19T08:37:09.218Z,72.19
2023-02-19T08:40:14.235Z,72.09
2023-02-19T08:43:27.328Z,71.12
2023-02-19T08:46:34.280Z,71.04
2023-02-19T08:49:41.002Z,70.47
2023-02-19T08:52:46.506Z,70.91
2023-02-19T08:55:51.992Z,70.10
2023-02-19T08:58:56.600Z,70.03
2023-02-19T09:02:00.051Z,69.55
2023-02-19T09:05:04.684Z,68.94
2023-02-19T09:08:09.177Z,68.72
2023-02-19T09:11:16.444Z,69.02
2023-02-19T09:14:21.468Z,68.00
2023-02-19T09:17:26.165Z,67.41
2023-02-19T09:20:30.461Z,68.29
2023-02-19T09:23:34.978Z,68.30
2023-02-19T09:26:39.198Z,67.24
2023-02-19T09:29:44.352Z,65.63
2023-02-19T09:32:49.855Z,66.29
2023-02-19T09:35:55.090Z,65.55
2023-02-19T09:39:00.122Z,66.36
2023-02-19T09:42:06.080Z,65.54
2023-02-19T09:45:12.096Z,64.37
2023-02-19T09:48:16.972Z,64.43
2023-02-19T09:51:20.820Z,65.09
2023-02-19T09:54:31.525Z,64.86
2023-02-19T09:57:36.591Z,64.97
2023-02-19T10:00:45.823Z,66.21
2023-02-19T10:03:54.789Z,66.38
2023-02-19T10:06:52.278Z,66.00
2023-02-19T10:09:37.997Z,64.84
2023-02-19T10:12:35.193Z,66.31
2023-02-19T10:15:31.682Z,65.80
2023-02-19T10:18:37.226Z,65.29
2023-02-19T10:21:41.355Z,66.26
2023-02-19T10:24:45.575Z,64.38
2023-02-19T10:27:49.474Z,64.28
2023-02-19T10:30:55.059Z,65.61
2023-02-19T10:34:09.506Z,66.39
2023-02-19T10:37:14.492Z,66.33
2023-02-19T10:40:18.326Z,63.83
2023-02-19T10:43:23.346Z,63.22
2023-02-19T10:46:31.745Z,63.62
2023-02-19T10:49:53.448Z,64.13
2023-02-19T10:52:57.682Z,63.24
2023-02-19T10:56:01.866Z,62.79
2023-02-19T10:59:05.551Z,63.57
2023-02-19T11:02:13.121Z,62.56
2023-02-19T11:05:29.891Z,62.16
2023-02-19T11:08:36.664Z,62.51
2023-02-19T11:11:46.588Z,63.89
2023-02-19T11:14:51.420Z,60.74
2023-02-19T11:17:55.544Z,60.02
2023-02-19T11:21:12.166Z,58.15
2023-02-19T11:24:16.563Z,59.00
2023-02-19T11:27:21.451Z,57.90
2023-02-19T11:30:49.407Z,57.01
2023-02-19T11:34:17.772Z,56.19
2023-02-19T11:37:24.961Z,55.56
2023-02-19T11:40:28.347Z,54.50
2023-02-19T11:43:45.932Z,54.52
2023-02-19T11:47:10.848Z,55.14
2023-02-19T11:50:40.669Z,53.93
2023-02-19T11:53:49.400Z,54.15
2023-02-19T11:56:54.246Z,54.48
2023-02-19T12:00:04.351Z,55.10
2023-02-19T12:03:31.732Z,54.81
2023-02-19T12:06:46.759Z,53.94
2023-02-19T12:10:13.492Z,54.24
2023-02-19T12:13:38.559Z,54.92
2023-02-19T12:17:08.372Z,55.16
2023-02-19T12:20:32.244Z,55.88
2023-02-19T12:24:12.375Z,56.05
2023-02-19T12:27:40.685Z,55.81
2023-02-19T12:31:15.978Z,55.83
2023-02-19T12:34:42.806Z,56.22
2023-02-19T12:37:51.452Z,54.45
2023-02-19T12:41:01.631Z,54.67
2023-02-19T12:44:09.558Z,53.31
2023-02-19T12:47:14.666Z,52.78
2023-02-19T12:50:28.368Z,52.47
2023-02-19T12:53:35.788Z,53.32
2023-02-19T12:56:59.966Z,53.52
2023-02-19T13:00:20.164Z,54.29
2023-02-19T13:03:30.892Z,54.89
2023-02-19T13:06:54.453Z,55.20
2023-02-19T13:10:12.236Z,55.66
2023-02-19T13:13:19.452Z,55.90
2023-02-19T13:16:28.570Z,56.32
2023-02-19T13:19:31.703Z,56.47
2023-02-19T13:23:15.685Z,57.27
2023-02-19T13:26:28.872Z,57.91
2023-02-19T13:29:40.916Z,57.87
2023-02-19T13:33:14.709Z,57.57
2023-02-19T13:36:25.586Z,57.61
2023-02-19T13:39:31.266Z,57.21
2023-02-19T13:42:39.947Z,57.86
2023-02-19T13:45:50.657Z,58.41
2023-02-19T13:48:56.568Z,58.65
2023-02-19T13:52:05.005Z,59.07
2023-02-19T13:55:29.246Z,59.43
2023-02-19T13:58:51.106Z,59.98
2023-02-19T14:02:13.675Z,60.07
2023-02-19T14:05:25.996Z,60.50
2023-02-19T14:08:31.117Z,60.67
2023-02-19T14:11:54.913Z,61.20
2023-02-19T14:14:51.332Z,61.73
2023-02-19T14:17:58.569Z,61.88
2023-02-19T14:21:02.045Z,62.48
2023-02-19T14:24:11.034Z,62.54
2023-02-19T14:27:15.063Z,62.15
2023-02-19T14:30:20.293Z,62.94
2023-02-19T14:33:24.215Z,62.92
2023-02-19T14:36:39.552Z,62.81
2023-02-19T14:39:46.544Z,62.79
2023-02-19T14:42:51.452Z,62.77
2023-02-19T14:45:58.750Z,63.30
2023-02-19T14:49:03.844Z,62.89
2023-02-19T14:52:11.861Z,62.87
2023-02-19T14:55:26.725Z,62.81
2023-02-19T14:58:35.179Z,62.77
2023-02-19T15:01:42.731Z,62.65
2023-02-19T15:04:50.562Z,62.75
2023-02-19T15:07:55.727Z,62.86
2023-02-19T15:10:59.890Z,63.03
2023-02-19T15:14:06.922Z,63.34
2023-02-19T15:17:16.419Z,63.66
2023-02-19T15:20:21.471Z,64.02
2023-02-19T15:23:28.045Z,63.95
2023-02-19T15:26:40.167Z,63.94
2023-02-19T15:29:44.045Z,63.98
2023-02-19T15:32:51.084Z,63.96
2023-02-19T15:35:55.605Z,64.31
2023-02-19T15:39:01.598Z,64.46
2023-02-19T15:42:11.935Z,64.89
2023-02-19T15:45:21.838Z,65.04
2023-02-19T15:48:29.764Z,65.09
2023-02-19T15:51:42.546Z,65.98
2023-02-19T15:54:50.572Z,66.11
2023-02-19T15:57:58.483Z,66.37
2023-02-19T16:01:17.699Z,66.33
2023-02-19T16:04:31.827Z,66.96
2023-02-19T16:07:46.019Z,67.47
2023-02-19T16:10:50.354Z,67.80
2023-02-19T16:13:54.427Z,67.99
2023-02-19T16:16:57.564Z,68.20
2023-02-19T16:20:04.609Z,69.19
2023-02-19T16:23:18.014Z,69.61
2023-02-19T16:26:22.939Z,69.24
2023-02-19T16:29:38.229Z,68.97
2023-02-19T16:32:42.623Z,69.40
2023-02-19T16:35:54.911Z,69.43
2023-02-19T16:39:24.293Z,69.99
2023-02-19T16:42:21.862Z,70.07
2023-02-19T16:45:27.595Z,70.03
2023-02-19T16:48:32.157Z,70.54
2023-02-19T16:51:40.135Z,70.52
2023-02-19T16:54:45.087Z,70.68
2023-02-19T16:57:49.295Z,70.75
2023-02-19T17:00:53.477Z,71.00
2023-02-19T17:03:59.757Z,71.53
2023-02-19T17:07:03.591Z,71.12
2023-02-19T17:10:07.917Z,71.46
2023-02-19T17:13:06.389Z,71.27
2023-02-19T17:16:11.294Z,71.08
2023-02-19T17:19:17.626Z,71.69
2023-02-19T17:22:23.745Z,71.75
2023-02-19T17:25:27.377Z,72.56
2023-02-19T17:28:31.429Z,73.50
2023-02-19T17:31:35.702Z,72.78
2023-02-19T17:34:39.420Z,72.80
2023-02-19T17:37:44.014Z,73.60
2023-02-19T17:40:48.787Z,74.29
2023-02-19T17:43:55.382Z,74.16
2023-02-19T17:47:01.527Z,73.78
2023-02-19T17:50:05.950Z,73.81
2023-02-19T17:53:10.225Z,73.83
2023-02-19T17:56:14.472Z,73.82
2023-02-19T17:59:19.456Z,73.77
2023-02-19T18:02:23.784Z,73.97
2023-02-19T18:05:29.002Z,73.96
2023-02-19T18:08:35.480Z,74.30
2023-02-19T18:11:40.126Z,74.05
2023-02-19T18:14:45.407Z,74.30
2023-02-19T18:17:49.079Z,74.02
2023-02-19T18:20:54.477Z,74.27
2023-02-19T18:24:00.582Z,73.95
2023-02-19T18:27:04.104Z,74.16
2023-02-19T18:30:09.335Z,74.17
2023-02-19T18:33:13.595Z,73.94
2023-02-19T18:36:19.269Z,74.17
2023-02-19T18:39:17.508Z,74.74
2023-02-19T18:42:22.884Z,74.75
2023-02-19T18:45:27.150Z,74.94
2023-02-19T18:48:32.285Z,75.44
2023-02-19T18:51:37.934Z,75.43
2023-02-19T18:54:43.859Z,75.66
2023-02-19T18:57:48.027Z,75.65
2023-02-19T19:00:53.014Z,75.50
2023-02-19T19:03:56.468Z,75.74
2023-02-19T19:07:02.182Z,76.37
2023-02-19T19:10:08.418Z,76.74
2023-02-19T19:13:13.318Z,76.82
2023-02-19T19:16:18.229Z,76.42
2023-02-19T19:19:23.637Z,76.21
2023-02-19T19:22:29.918Z,76.10
2023-02-19T19:25:35.215Z,75.95
2023-02-19T19:28:40.644Z,75.66
2023-02-19T19:31:50.233Z,75.65
2023-02-19T19:34:55.365Z,75.65
2023-02-19T19:38:00.354Z,75.59
2023-02-19T19:41:04.773Z,75.50
2023-02-19T19:44:09.352Z,75.25
2023-02-19T19:47:13.954Z,75.44
2023-02-19T19:50:20.966Z,75.61
2023-02-19T19:53:25.574Z,75.42
2023-02-19T19:56:30.884Z,75.38
2023-02-19T19:59:34.239Z,75.20
2023-02-19T20:02:38.943Z,75.47
2023-02-19T20:05:43.437Z,75.27
2023-02-19T20:08:47.845Z,75.58
2023-02-19T20:12:04.155Z,75.98
2023-02-19T20:15:07.511Z,75.70
2023-02-19T20:18:11.888Z,75.67
2023-02-19T20:21:17.204Z,76.09
2023-02-19T20:24:22.446Z,77.15
2023-02-19T20:27:27.281Z,77.64
2023-02-19T20:30:32.456Z,77.86
2023-02-19T20:33:37.347Z,78.05
2023-02-19T20:36:42.906Z,78.58
2023-02-19T20:39:46.272Z,79.30
2023-02-19T20:42:51.627Z,78.89
2023-02-19T20:45:56.170Z,78.91
2023-02-19T20:49:00.819Z,78.95
2023-02-19T20:52:06.872Z,78.85
2023-02-19T20:55:10.480Z,78.21
2023-02-19T20:58:13.874Z,77.91
2023-02-19T21:01:13.098Z,77.59
2023-02-19T21:04:18.144Z,77.62
2023-02-19T21:07:21.868Z,77.75
2023-02-19T21:10:26.538Z,78.24
2023-02-19T21:13:30.920Z,78.77
2023-02-19T21:16:35.129Z,79.27
2023-02-19T21:19:40.554Z,79.24
2023-02-19T21:22:45.303Z,79.27
2023-02-19T21:25:48.936Z,78.66
2023-02-19T21:28:53.317Z,79.13
2023-02-19T21:32:00.760Z,78.73
2023-02-19T21:35:05.725Z,80.21
2023-02-19T21:38:03.170Z,79.96
2023-02-19T21:41:06.883Z,79.65
2023-02-19T21:44:10.710Z,79.50
2023-02-19T21:47:15.989Z,79.72
2023-02-19T21:50:21.051Z,80.61
2023-02-19T21:53:25.908Z,80.70
2023-02-19T21:56:41.193Z,80.02
2023-02-19T21:59:46.079Z,80.35
2023-02-19T22:02:50.432Z,79.71
2023-02-19T22:05:54.471Z,79.93
2023-02-19T22:08:58.532Z,79.76
2023-02-19T22:12:04.224Z,79.01
2023-02-19T22:15:08.398Z,78.53
2023-02-19T22:18:12.909Z,78.26
2023-02-19T22:21:19.203Z,78.36
2023-02-19T22:24:30.344Z,79.27
2023-02-19T22:27:35.279Z,79.98
2023-02-19T22:30:40.079Z,80.64
2023-02-19T22:33:44.198Z,80.99
2023-02-19T22:36:48.892Z,80.84
2023-02-19T22:39:52.881Z,81.09
2023-02-19T22:42:56.494Z,81.18
2023-02-19T22:45:54.917Z,80.65
2023-02-19T22:48:46.635Z,80.46
2023-02-19T22:51:50.081Z,80.12
2023-02-19T22:54:56.779Z,80.24
2023-02-19T22:58:01.030Z,80.45
2023-02-19T23:01:06.074Z,80.60
2023-02-19T23:04:13.714Z,80.23
2023-02-19T23:07:19.807Z,80.79
2023-02-19T23:10:25.774Z,80.86
2023-02-19T23:13:30.216Z,81.32
2023-02-19T23:16:33.542Z,80.83
2023-02-19T23:19:37.929Z,81.18
2023-02-19T23:22:42.500Z,80.67
2023-02-19T23:25:47.230Z,80.90
2023-02-19T23:28:53.699Z,81.69
2023-02-19T23:31:57.344Z,82.12
2023-02-19T23:35:02.684Z,81.83
2023-02-19T23:38:07.583Z,81.88
2023-02-19T23:41:12.084Z,81.94
2023-02-19T23:44:17.798Z,81.70
2023-02-19T23:47:22.454Z,81.64
2023-02-19T23:50:28.836Z,81.37
2023-02-19T23:53:32.930Z,81.32
2023-02-19T23:56:41.251Z,81.60
2023-02-19T23:59:45.172Z,81.30
